• Join FlightAware (Why Join?)
  • Login
  • US Flag 
01:51AM EDT


 

Airport Tracker/Info


-or-


 

Live Flight TrackerFlight Track Log ✈ N7804D ✈ 01-Mar-2014 ✈ KBGM - KVGC

Flight Track Log - Related Links

Times and Time Zones

All times are in EST time to prevent confusion due to time zone crossing. See the N7804D flight status page for this flight to view local times or setup timezone preferences in your user account.

Time Position Orientation Groundspeed Altitude Reporting Facility
EST Latitude Longitude Course Direction KTS MPH feet Rate Location/Type
11:26AM 42.2372 -75.9036 24° Northeast 118 136 3,600  Level New York Center
11:27AM 42.2664 -75.8831 28° Northeast 117 135 3,600  Level Boston Center
11:28AM 42.2975 -75.8706 17° North 115 132 3,600  Level Boston Center
11:29AM 42.3286 -75.8631 10° North 113 130 3,700  Climbing Boston Center
11:30AM 42.4265 -75.8276 24° Northeast  Level FlightAware Approximate
11:30AM 42.3606 -75.8483 19° North 117 135 3,600  Level Boston Center
11:31AM 42.4644 -75.8048 24° Northeast  Level FlightAware Approximate
11:31AM 42.3922 -75.8325 20° North 120 138 3,600  Level Boston Center
11:32AM 42.4214 -75.8172 21° North 116 133 3,600 -60 Level Boston Center
11:33AM 42.4514 -75.7972 26° Northeast 119 137 3,500  Descending Boston Center
11:34AM 42.4794 -75.7797 25° Northeast 116 133 3,600  Climbing Boston Center
11:35AM 42.5161 -75.7664 15° North 113 130 3,600 -60 Level Boston Center
11:35AM 42.5350 -75.7636 North 114 131 3,500  Descending Boston Center
11:36AM 42.5472 -75.7569 22° Northeast 114 131 3,600 60 Climbing Boston Center
11:36AM 42.5583 -75.7506 23° Northeast 114 131 3,600 180 Level Boston Center
11:37AM 42.5772 -75.7389 24° Northeast 115 132 3,800  Climbing Boston Center
11:37AM 42.5969 -75.7247 28° Northeast 120 138 3,600 -120 Descending Boston Center
11:38AM 42.6053 -75.7181 30° Northeast 117 135 3,700  Climbing Boston Center
11:38AM 42.6231 -75.7094 20° North 120 138 3,600  Descending Boston Center
11:39AM 42.6353 -75.6978 35° Northeast 118 136 3,700  Climbing Boston Center
11:39AM 42.6525 -75.6867 25° Northeast 117 135 3,600  Descending Boston Center
11:40AM 42.6636 -75.6778 30° Northeast 117 135 3,700  Climbing Boston Center
11:41AM 42.6833 -75.6672 21° North 116 133 3,600 -120 Descending Boston Center
11:41AM 42.6928 -75.6578 36° Northeast 118 136 3,600 60 Level Boston Center
11:42AM 42.7206 -75.6392 26° Northeast 117 135 3,700 60 Climbing Boston Center
11:44AM 42.7570 -75.5977 14° North  Level FlightAware Approximate
11:51AM 42.8333 -75.5500 36° Northeast  Level FlightAware Approximate
11:52AM 42.8434 -75.5612 36° Northeast  Level Estimated